Time;durP1;ratioP1;P1;durP2;ratioP2;P2;SDS_P1;SDS_P2;PMS_P1;PMS_P2;Temp;Humidity;BMP_temperature;BMP_pressure;BME280_temperature;BME280_humidity;BME280_pressure;Samples;Min_cycle;Max_cycle;Signal;HPM_P1;HPM_P2
2023/08/07 00:01:51;;;;;;;7.00;6.40;;;;;;;14.71;100.00;98238.47;5034089;28;20037;-87
2023/08/07 00:04:16;;;;;;;7.40;6.60;;;;;;;14.67;100.00;98229.22;5034224;28;20055;-87
2023/08/07 00:06:41;;;;;;;6.93;6.22;;;;;;;14.65;100.00;98231.13;5034103;28;20032;-86
2023/08/07 00:09:07;;;;;;;7.78;6.97;;;;;;;14.58;100.00;98227.41;5033989;28;20371;-87
2023/08/07 00:11:32;;;;;;;8.88;7.97;;;;;;;14.57;100.00;98224.88;5052205;28;20112;-87
2023/08/07 00:13:58;;;;;;;9.63;7.93;;;;;;;14.65;100.00;98243.41;5051185;28;20080;-86
2023/08/07 00:16:24;;;;;;;8.80;7.90;;;;;;;14.36;100.00;98202.16;5051283;28;20036;-86
2023/08/07 00:18:49;;;;;;;9.13;7.10;;;;;;;14.55;100.00;98232.88;5033105;28;20025;-87
2023/08/07 00:21:14;;;;;;;8.00;7.20;;;;;;;14.64;100.00;98262.72;5033040;28;20047;-87
2023/08/07 00:23:40;;;;;;;8.88;7.38;;;;;;;14.73;100.00;98281.09;5051295;28;20056;-87
2023/08/07 00:26:05;;;;;;;7.57;6.85;;;;;;;14.76;100.00;98281.81;5051003;28;20056;-87
2023/08/07 00:28:30;;;;;;;7.82;7.13;;;;;;;14.69;100.00;98273.63;5033359;28;20029;-87
2023/08/07 00:30:56;;;;;;;8.05;7.22;;;;;;;14.66;100.00;98276.50;5050839;28;20032;-86
2023/08/07 00:33:22;;;;;;;8.27;7.47;;;;;;;14.49;100.00;98262.22;5051021;28;20029;-87
2023/08/07 00:35:48;;;;;;;7.90;7.10;;;;;;;14.69;100.00;98289.34;5032951;28;20469;-86
2023/08/07 00:38:13;;;;;;;8.00;7.20;;;;;;;14.67;100.00;98283.44;5050926;28;20060;-87
2023/08/07 00:40:39;;;;;;;8.38;7.45;;;;;;;14.54;100.00;98273.16;5032908;28;20025;-87
2023/08/07 00:43:05;;;;;;;7.25;6.55;;;;;;;14.51;100.00;98259.47;5051794;28;20498;-86
2023/08/07 00:45:41;;;;;;;7.03;6.38;;;;;;;14.69;100.00;98294.59;5036496;28;20028;-87
2023/08/07 00:48:06;;;;;;;7.70;7.00;;;;;;;14.57;100.00;98275.50;5036332;28;20510;-86
2023/08/07 00:50:32;;;;;;;7.20;6.50;;;;;;;14.58;100.00;98274.56;5054347;28;20104;-87
2023/08/07 00:52:58;;;;;;;6.93;6.13;;;;;;;14.51;100.00;98267.34;5054263;28;20033;-87
2023/08/07 00:55:24;;;;;;;7.45;6.53;;;;;;;14.34;100.00;98235.50;5036439;28;20494;-87
2023/08/07 00:57:49;;;;;;;8.48;6.68;;;;;;;14.55;100.00;98266.94;5036420;28;20028;-87
2023/08/07 01:00:16;;;;;;;8.20;7.25;;;;;;;14.61;100.00;98281.31;5054060;28;20031;-87
2023/08/07 01:02:41;;;;;;;7.60;6.80;;;;;;;14.47;100.00;98271.97;5036103;28;20079;-87
2023/08/07 01:05:07;;;;;;;7.72;7.03;;;;;;;14.54;100.00;98281.03;5031274;28;20484;-87
2023/08/07 01:07:32;;;;;;;6.72;6.10;;;;;;;14.52;100.00;98282.91;5015129;28;20034;-87
2023/08/07 01:10:02;;;;;;;7.60;6.15;;;;;;;14.56;100.00;98286.13;5031692;28;20040;-87
2023/08/07 01:12:31;;;;;;;7.33;6.63;;;;;;;14.57;100.00;98288.59;4991258;28;1159054;-87
2023/08/07 01:15:21;;;;;;;6.57;5.97;;;;;;;14.46;100.00;98276.38;5032788;28;20064;-86
2023/08/07 01:17:48;;;;;;;9.07;6.57;;;;;;;14.51;100.00;98280.44;5016336;28;20124;-86
2023/08/07 01:20:13;;;;;;;7.47;6.75;;;;;;;14.47;100.00;98272.81;5016075;28;20037;-87
2023/08/07 01:22:39;;;;;;;8.55;7.57;;;;;;;14.45;100.00;98259.03;5016315;28;20083;-87
2023/08/07 01:25:05;;;;;;;8.88;7.72;;;;;;;14.40;100.00;98268.22;5032459;28;20540;-87
2023/08/07 01:27:55;;;;;;;7.53;6.72;;;;;;;14.46;100.00;98272.94;5032760;28;20605;-87
2023/08/07 01:30:33;;;;;;;9.23;7.78;;;;;;;14.40;100.00;98255.94;5016111;28;20140;-87
2023/08/07 01:33:07;;;;;;;7.70;6.65;;;;;;;14.44;100.00;98257.34;5032474;28;20057;-87
2023/08/07 01:35:38;;;;;;;9.18;6.72;;;;;;;14.44;100.00;98267.81;5038231;28;20546;-87
2023/08/07 01:38:05;;;;;;;;;;;;;;;14.37;100.00;98260.63;5037067;28;20395;-87
2023/08/07 01:40:30;;;;;;;8.00;6.20;;;;;;;14.32;100.00;98245.28;5054755;28;19912;-87
2023/08/07 01:42:56;;;;;;;7.28;6.60;;;;;;;14.25;100.00;98235.47;5036599;28;20027;-87
2023/08/07 01:45:23;;;;;;;6.85;6.25;;;;;;;14.17;100.00;98234.31;5054639;28;20037;-87
2023/08/07 01:47:49;;;;;;;6.78;6.10;;;;;;;14.12;100.00;98233.88;5054465;28;20033;-87
2023/08/07 01:50:14;;;;;;;6.90;6.30;;;;;;;14.05;100.00;98231.88;5036382;28;20043;-87
2023/08/07 01:52:39;;;;;;;7.22;6.53;;;;;;;13.89;100.00;98214.84;5054772;28;20043;-86
2023/08/07 01:55:05;;;;;;;9.25;6.57;;;;;;;14.01;100.00;98239.16;5054421;28;20094;-86
2023/08/07 01:57:31;;;;;;;7.22;6.53;;;;;;;13.77;100.00;98213.22;5036785;28;20049;-86
2023/08/07 01:59:56;;;;;;;7.72;7.03;;;;;;;13.97;100.00;98256.09;5036476;28;20048;-87
2023/08/07 02:02:21;;;;;;;7.05;6.35;;;;;;;13.88;100.00;98241.13;5036656;28;20024;-86
2023/08/07 02:04:47;;;;;;;7.10;6.47;;;;;;;13.71;100.00;98214.56;5054308;28;20033;-86
2023/08/07 02:07:12;;;;;;;6.78;6.07;;;;;;;13.83;100.00;98238.09;5036198;28;20087;-87
2023/08/07 02:09:37;;;;;;;7.30;6.60;;;;;;;13.77;100.00;98218.47;5054506;28;20029;-87
2023/08/07 02:12:03;;;;;;;9.68;6.68;;;;;;;14.05;100.00;98266.75;5054067;28;20028;-86
2023/08/07 02:14:28;;;;;;;8.05;6.40;;;;;;;13.93;100.00;98249.44;5054208;28;20045;-87
2023/08/07 02:16:54;;;;;;;7.05;6.32;;;;;;;14.09;100.00;98264.72;5036044;28;20021;-87
2023/08/07 02:19:19;;;;;;;7.32;6.63;;;;;;;14.10;100.00;98264.56;5053823;28;20037;-87
2023/08/07 02:21:44;;;;;;;6.43;5.82;;;;;;;14.07;100.00;98250.91;5053966;28;20029;-86
2023/08/07 02:24:10;;;;;;;7.50;6.80;;;;;;;13.77;100.00;98184.44;5053724;28;20087;-87
2023/08/07 02:26:35;;;;;;;8.27;7.03;;;;;;;14.20;100.00;98265.50;5054065;28;20020;-87
2023/08/07 02:29:02;;;;;;;8.13;7.32;;;;;;;14.07;100.00;98238.63;5035882;28;20021;-87
2023/08/07 02:31:27;;;;;;;8.32;7.40;;;;;;;14.08;100.00;98239.50;5053778;28;20541;-87
2023/08/07 02:33:52;;;;;;;10.98;7.97;;;;;;;14.25;100.00;98256.41;5035865;28;20033;-87
2023/08/07 02:36:17;;;;;;;10.35;9.30;;;;;;;13.75;100.00;98172.47;5035640;28;20025;-87
2023/08/07 02:38:43;;;;;;;9.02;8.20;;;;;;;14.03;100.00;98223.31;5035717;28;20038;-87
2023/08/07 02:41:08;;;;;;;9.73;8.73;;;;;;;14.34;100.00;98266.13;5035679;28;20075;-87
2023/08/07 02:43:34;;;;;;;10.45;9.32;;;;;;;14.27;100.00;98259.72;5035800;28;20036;-87
2023/08/07 02:45:59;;;;;;;10.25;9.18;;;;;;;14.02;100.00;98216.44;5035284;28;20392;-87
2023/08/07 02:48:25;;;;;;;9.23;8.32;;;;;;;13.92;100.00;98203.28;5053467;28;20074;-87
2023/08/07 02:50:51;;;;;;;10.98;9.13;;;;;;;14.38;100.00;98278.81;5035575;28;20025;-87
2023/08/07 02:53:16;;;;;;;11.48;9.18;;;;;;;14.37;100.00;98265.88;5053128;28;20032;-86
2023/08/07 02:55:43;;;;;;;10.52;9.45;;;;;;;14.32;100.00;98254.91;5053269;28;20392;-87
2023/08/07 02:58:09;;;;;;;10.35;8.07;;;;;;;14.38;100.00;98267.53;5035285;28;20068;-86
2023/08/07 03:00:35;;;;;;;9.57;8.68;;;;;;;14.34;100.00;98256.47;5035450;28;20123;-87
2023/08/07 03:03:00;;;;;;;9.57;7.97;;;;;;;14.39;100.00;98269.16;5035112;28;20602;-87
2023/08/07 03:05:25;;;;;;;9.27;8.38;;;;;;;14.29;100.00;98247.34;5034366;28;20108;-87
2023/08/07 03:07:51;;;;;;;9.77;8.82;;;;;;;14.42;100.00;98271.53;5053159;28;20099;-87
2023/08/07 03:10:16;;;;;;;10.23;8.93;;;;;;;14.38;100.00;98263.09;5035123;28;20032;-87
2023/08/07 03:12:41;;;;;;;9.18;7.93;;;;;;;14.26;100.00;98244.97;5035256;28;20048;-87
2023/08/07 03:15:08;;;;;;;10.02;9.07;;;;;;;14.38;100.00;98276.19;5052996;28;20025;-87
2023/08/07 03:17:33;;;;;;;10.90;9.80;;;;;;;14.43;100.00;98279.25;5053281;28;20021;-87
2023/08/07 03:19:58;;;;;;;9.35;8.45;;;;;;;14.42;100.00;98282.03;5052982;28;20025;-87
2023/08/07 03:22:24;;;;;;;10.80;9.70;;;;;;;14.46;100.00;98288.66;5034561;28;20052;-87
2023/08/07 03:24:49;;;;;;;11.98;8.90;;;;;;;14.40;100.00;98276.88;5052948;28;20051;-87
2023/08/07 03:27:15;;;;;;;10.32;9.10;;;;;;;14.33;100.00;98272.31;5052978;28;20029;-87
2023/08/07 03:29:40;;;;;;;9.82;8.82;;;;;;;14.24;100.00;98258.19;5034904;28;20055;-87
2023/08/07 03:32:06;;;;;;;9.40;8.43;;;;;;;14.06;100.00;98233.53;5052476;28;20040;-86
2023/08/07 03:34:31;;;;;;;9.23;8.38;;;;;;;14.31;100.00;98277.66;5052728;28;20025;-87
2023/08/07 03:36:59;;;;;;;9.50;8.50;;;;;;;13.99;100.00;98230.63;5034844;28;20504;-87
2023/08/07 03:39:24;;;;;;;10.18;9.18;;;;;;;14.10;100.00;98240.19;5052840;28;20025;-87
2023/08/07 03:41:50;;;;;;;9.52;8.02;;;;;;;14.34;100.00;98289.69;5053032;28;20025;-87
2023/08/07 03:44:15;;;;;;;9.45;8.45;;;;;;;14.30;100.00;98296.13;5034782;28;20047;-87
2023/08/07 03:46:40;;;;;;;9.73;8.38;;;;;;;14.40;100.00;98303.09;5052806;28;20029;-87
2023/08/07 03:49:06;;;;;;;11.48;9.82;;;;;;;14.24;100.00;98286.97;5035187;28;20111;-87
2023/08/07 03:51:32;;;;;;;9.65;8.55;;;;;;;14.40;100.00;98303.09;5036502;28;20128;-87
2023/08/07 03:53:57;;;;;;;10.68;9.30;;;;;;;14.21;100.00;98271.56;5067997;28;20029;-87
2023/08/07 03:56:22;;;;;;;10.88;9.15;;;;;;;14.17;100.00;98262.28;5067651;28;20081;-86
2023/08/07 03:58:49;;;;;;;10.57;9.57;;;;;;;14.41;100.00;98302.16;5068484;28;20082;-87
2023/08/07 04:01:15;;;;;;;10.23;9.20;;;;;;;14.37;100.00;98307.78;5046286;28;20052;-87
2023/08/07 04:03:40;;;;;;;11.13;8.63;;;;;;;14.34;100.00;98303.63;5030665;28;20038;-87
2023/08/07 04:06:05;;;;;;;10.23;8.90;;;;;;;14.37;100.00;98311.22;5026182;28;20478;-87
2023/08/07 04:08:31;;;;;;;9.38;8.48;;;;;;;14.38;100.00;98306.81;5031983;28;20033;-87
2023/08/07 04:11:05;;;;;;;9.73;8.80;;;;;;;14.46;100.00;98320.09;5030349;28;20571;-87
2023/08/07 04:13:31;;;;;;;9.30;8.38;;;;;;;14.38;100.00;98298.94;5013030;28;20118;-86
2023/08/07 04:15:57;;;;;;;11.00;8.50;;;;;;;14.51;100.00;98325.81;5013115;28;20033;-86
2023/08/07 04:18:23;;;;;;;8.52;7.75;;;;;;;14.45;100.00;98310.56;5029646;28;20076;-86
2023/08/07 04:20:55;;;;;;;8.70;7.80;;;;;;;14.50;100.00;98324.16;5029692;28;20025;-87
2023/08/07 04:23:21;;;;;;;9.18;8.25;;;;;;;14.44;100.00;98316.75;5012914;28;20041;-86
2023/08/07 04:25:47;;;;;;;8.63;7.78;;;;;;;14.59;100.00;98333.84;5012971;28;20659;-86
2023/08/07 04:28:13;;;;;;;9.05;8.15;;;;;;;14.47;100.00;98316.50;4989874;28;20042;-87
2023/08/07 04:30:39;;;;;;;9.73;8.73;;;;;;;14.36;100.00;98298.22;4990297;28;20077;-87
2023/08/07 04:33:04;;;;;;;8.90;7.82;;;;;;;14.35;100.00;98294.78;4990167;28;20042;-86
2023/08/07 04:35:30;;;;;;;7.97;7.18;;;;;;;14.28;100.00;98283.16;4990263;28;20370;-87
2023/08/07 04:37:56;;;;;;;7.22;6.53;;;;;;;14.52;100.00;98330.09;4993722;28;20497;-86
2023/08/07 04:40:21;;;;;;;9.20;7.57;;;;;;;14.51;100.00;98323.19;5009683;28;20122;-87
2023/08/07 04:42:48;;;;;;;7.07;6.38;;;;;;;14.40;100.00;98304.88;5009784;28;20104;-86
2023/08/07 04:45:14;;;;;;;7.25;6.55;;;;;;;14.64;100.00;98342.16;5009216;28;20101;-87
2023/08/07 04:47:39;;;;;;;7.25;6.53;;;;;;;14.42;100.00;98298.56;4993170;28;20128;-87
2023/08/07 04:50:04;;;;;;;6.88;6.28;;;;;;;14.49;100.00;98309.38;5009738;28;20491;-87
2023/08/07 04:52:30;;;;;;;7.10;6.38;;;;;;;14.30;100.00;98278.63;5009446;28;20437;-86
2023/08/07 04:54:55;;;;;;;6.75;6.07;;;;;;;14.62;100.00;98320.50;5009748;28;20088;-86
2023/08/07 04:57:20;;;;;;;6.50;6.00;;;;;;;14.54;100.00;98309.84;5009357;28;20022;-86
2023/08/07 04:59:46;;;;;;;6.88;6.10;;;;;;;14.60;100.00;98313.72;5027991;28;20044;-86
2023/08/07 05:02:11;;;;;;;7.15;6.45;;;;;;;14.63;100.00;98326.56;5033415;28;20056;-86
2023/08/07 05:04:37;;;;;;;6.47;5.88;;;;;;;14.68;100.00;98332.25;5051702;28;20060;-87
2023/08/07 05:07:02;;;;;;;5.95;5.45;;;;;;;14.59;100.00;98315.50;5033825;28;20033;-87
2023/08/07 05:09:28;;;;;;;6.40;5.80;;;;;;;14.69;100.00;98332.09;5033526;28;20078;-87
2023/08/07 05:11:53;;;;;;;5.70;5.20;;;;;;;14.72;100.00;98338.91;5051585;28;20534;-87
2023/08/07 05:14:18;;;;;;;5.47;4.97;;;;;;;14.57;100.00;98304.31;5033192;28;20496;-87
2023/08/07 05:16:44;;;;;;;6.05;5.55;;;;;;;14.76;100.00;98332.44;5051396;28;20033;-87
2023/08/07 05:19:09;;;;;;;6.15;5.28;;;;;;;14.82;100.00;98333.69;5033233;28;20033;-87
2023/08/07 05:21:34;;;;;;;6.35;5.72;;;;;;;14.81;100.00;98339.91;5033713;28;20025;-87
2023/08/07 05:24:00;;;;;;;6.35;5.75;;;;;;;14.71;100.00;98317.09;5051438;28;20033;-87
2023/08/07 05:26:25;;;;;;;6.30;5.70;;;;;;;14.65;100.00;98298.44;5051452;28;20024;-87
2023/08/07 05:28:50;;;;;;;6.32;5.70;;;;;;;15.04;100.00;98356.28;5034490;28;20029;-87
2023/08/07 05:31:16;;;;;;;7.03;6.43;;;;;;;15.01;100.00;98349.53;5054992;28;20049;-87
2023/08/07 05:33:41;;;;;;;6.18;5.57;;;;;;;15.04;100.00;98354.50;5037117;28;20039;-87
2023/08/07 05:36:06;;;;;;;7.07;6.38;;;;;;;15.12;100.00;98359.09;5037442;28;20166;-87
2023/08/07 05:38:32;;;;;;;7.50;6.80;;;;;;;15.18;100.00;98371.69;5037429;28;20079;-87
2023/08/07 05:40:57;;;;;;;6.53;5.95;;;;;;;14.93;100.00;98325.75;5037787;28;20024;-87
2023/08/07 05:43:23;;;;;;;6.38;5.78;;;;;;;15.16;100.00;98363.94;5037242;28;20032;-87
2023/08/07 05:45:48;;;;;;;6.40;5.80;;;;;;;14.83;100.00;98317.84;5055140;28;20123;-86
2023/08/07 05:48:16;;;;;;;6.90;5.88;;;;;;;15.11;100.00;98353.00;5037280;28;20064;-87
2023/08/07 05:50:42;;;;;;;6.60;6.00;;;;;;;15.11;100.00;98355.63;5055072;28;20025;-87
2023/08/07 05:53:07;;;;;;;6.18;5.68;;;;;;;14.92;100.00;98326.72;5055553;28;20104;-87
2023/08/07 05:55:33;;;;;;;7.60;5.95;;;;;;;15.00;100.00;98349.63;5055032;28;20052;-87
2023/08/07 05:57:58;;;;;;;5.15;4.65;;;;;;;15.08;100.00;98365.56;5054996;28;20033;-87
2023/08/07 06:00:25;;;;;;;5.70;5.10;;;;;;;15.05;100.00;98360.59;5036738;28;20384;-87
2023/08/07 06:02:50;;;;;;;7.15;5.75;;;;;;;15.01;100.00;98354.78;5036876;28;20064;-87
2023/08/07 06:05:16;;;;;;;6.07;5.35;;;;;;;15.14;100.00;98375.53;5036672;28;20049;-86
2023/08/07 06:07:41;;;;;;;5.47;4.97;;;;;;;15.13;100.00;98371.25;5037131;28;20025;-86
2023/08/07 06:10:07;;;;;;;5.88;5.28;;;;;;;15.19;100.00;98374.16;5055022;28;20451;-86
2023/08/07 06:12:32;;;;;;;5.20;4.70;;;;;;;15.07;100.00;98350.78;5036761;28;20036;-87
2023/08/07 06:14:58;;;;;;;4.70;4.30;;;;;;;15.12;100.00;98343.34;5032778;28;20044;-86
2023/08/07 06:17:23;;;;;;;5.45;4.30;;;;;;;15.26;100.00;98361.38;5015963;28;20129;-86
2023/08/07 06:19:48;;;;;;;5.47;4.85;;;;;;;15.22;100.00;98355.56;5025099;28;20053;-87
2023/08/07 06:22:14;;;;;;;5.43;4.28;;;;;;;15.43;100.00;98375.66;5012436;28;20098;-87
2023/08/07 06:24:39;;;;;;;4.88;4.47;;;;;;;15.58;100.00;98386.59;5012453;28;20053;-87
2023/08/07 06:27:05;;;;;;;4.97;4.50;;;;;;;15.67;100.00;98402.41;4996381;28;20056;-87
2023/08/07 06:29:30;;;;;;;4.55;4.15;;;;;;;15.76;100.00;98402.53;4995636;28;20097;-87
2023/08/07 06:31:55;;;;;;;6.82;4.57;;;;;;;15.66;100.00;98376.28;4996254;28;20026;-87
2023/08/07 06:34:21;;;;;;;5.35;4.10;;;;;;;15.98;100.00;98412.84;4995886;28;20034;-87
2023/08/07 06:36:49;;;;;;;4.40;4.00;;;;;;;16.13;100.00;98411.47;4996035;28;20188;-86
2023/08/07 06:39:15;;;;;;;4.68;4.28;;;;;;;16.30;100.00;98411.75;4995438;28;20093;-87
2023/08/07 06:41:40;;;;;;;4.10;3.70;;;;;;;16.32;100.00;98375.66;4994877;28;20129;-87
2023/08/07 06:44:05;;;;;;;4.97;4.55;;;;;;;16.85;100.00;98414.66;4995756;28;20030;-87
2023/08/07 06:46:31;;;;;;;4.88;4.15;;;;;;;16.90;100.00;98386.97;5020785;28;20506;-87
2023/08/07 06:48:56;;;;;;;4.55;4.15;;;;;;;17.30;100.00;98409.53;5014959;28;20040;-87
2023/08/07 06:51:21;;;;;;;5.60;3.83;;;;;;;17.27;100.00;98366.88;5015000;28;20033;-87
2023/08/07 06:53:47;;;;;;;4.32;3.92;;;;;;;17.89;100.00;98428.56;5015126;28;20525;-87
2023/08/07 06:56:12;;;;;;;3.97;3.67;;;;;;;18.19;100.00;98427.38;5032835;28;20049;-87
2023/08/07 06:58:38;;;;;;;4.55;4.15;;;;;;;18.17;100.00;98372.22;5032244;28;20040;-87
2023/08/07 07:01:03;;;;;;;4.18;3.35;;;;;;;18.72;100.00;98412.56;5031592;28;20041;-87
2023/08/07 07:03:28;;;;;;;5.63;3.10;;;;;;;19.00;100.00;98418.53;5015105;28;20091;-87
2023/08/07 07:05:55;;;;;;;4.88;3.58;;;;;;;19.28;100.00;98417.38;5031310;28;20041;-87
2023/08/07 07:08:20;;;;;;;5.35;3.40;;;;;;;19.67;100.00;98423.03;5030920;28;20033;-88
2023/08/07 07:10:46;;;;;;;3.40;3.10;;;;;;;19.93;100.00;98411.56;5031124;28;20033;-87
2023/08/07 07:13:11;;;;;;;4.93;3.65;;;;;;;20.38;100.00;98439.44;5011880;28;20052;-87
2023/08/07 07:15:36;;;;;;;3.75;3.30;;;;;;;20.37;100.00;98429.84;5031379;28;20121;-87
2023/08/07 07:18:02;;;;;;;3.45;3.15;;;;;;;20.58;100.00;98438.16;5029640;28;20139;-87
2023/08/07 07:20:27;;;;;;;3.30;3.00;;;;;;;21.23;100.00;98441.75;5036311;28;20025;-87
2023/08/07 07:22:53;;;;;;;5.25;3.13;;;;;;;22.11;97.54;98442.41;5036894;28;20025;-87
2023/08/07 07:25:18;;;;;;;3.22;2.92;;;;;;;22.76;94.00;98403.22;5054727;28;20025;-87
2023/08/07 07:27:43;;;;;;;2.88;2.45;;;;;;;23.18;91.11;98434.53;5054820;28;20078;-90
2023/08/07 07:30:09;;;;;;;3.38;3.00;;;;;;;22.79;90.49;98427.53;5053031;28;20017;-88
2023/08/07 07:32:35;;;;;;;4.18;2.70;;;;;;;22.53;90.94;98449.16;5035682;28;20703;-88
2023/08/07 07:35:00;;;;;;;4.55;3.45;;;;;;;22.88;91.85;98423.84;5053467;28;20021;-86
2023/08/07 07:37:26;;;;;;;3.60;3.00;;;;;;;23.87;88.92;98440.41;5053729;28;20090;-88
2023/08/07 07:39:51;;;;;;;3.22;2.97;;;;;;;25.51;85.19;98448.50;5053112;28;20375;-88
2023/08/07 07:42:16;;;;;;;3.22;2.88;;;;;;;27.03;78.44;98454.28;5057766;28;20035;-88
2023/08/07 07:44:42;;;;;;;2.92;2.55;;;;;;;28.25;74.68;98449.28;5073569;28;20041;-88
2023/08/07 07:47:08;;;;;;;4.60;2.80;;;;;;;28.41;72.54;98442.63;5055334;28;20703;-89
2023/08/07 07:49:33;;;;;;;4.00;2.50;;;;;;;27.72;70.82;98428.88;5056172;28;20028;-89
2023/08/07 07:51:59;;;;;;;2.80;2.60;;;;;;;26.90;72.23;98453.47;5073227;28;20033;-88
2023/08/07 07:54:24;;;;;;;4.32;2.95;;;;;;;25.81;73.49;98471.25;5074830;28;20031;-88
2023/08/07 07:56:49;;;;;;;4.88;2.90;;;;;;;24.68;76.25;98466.88;5055737;28;20041;-88
2023/08/07 07:59:16;;;;;;;3.03;2.72;;;;;;;23.88;78.76;98459.84;5036476;28;20025;-87
2023/08/07 08:01:41;;;;;;;3.30;3.00;;;;;;;24.06;80.40;98436.34;5053686;28;20036;-88
2023/08/07 08:04:06;;;;;;;3.55;2.78;;;;;;;24.44;79.76;98464.59;5054062;28;20017;-87
2023/08/07 08:06:32;;;;;;;3.85;2.95;;;;;;;24.13;79.44;98453.19;5035828;28;20064;-87
2023/08/07 08:08:57;;;;;;;2.92;2.63;;;;;;;23.72;81.90;98470.66;5053563;28;20025;-88
2023/08/07 08:11:23;;;;;;;3.20;2.90;;;;;;;23.23;83.33;98457.91;5053611;28;20025;-88
2023/08/07 08:13:48;;;;;;;3.28;2.88;;;;;;;23.02;83.92;98472.69;5035462;28;20068;-88
2023/08/07 08:16:14;;;;;;;4.90;3.38;;;;;;;22.96;82.55;98480.53;5054219;28;20033;-88
2023/08/07 08:18:40;;;;;;;3.60;3.20;;;;;;;22.48;83.74;98456.00;5036819;28;20078;-87
2023/08/07 08:21:06;;;;;;;4.93;3.88;;;;;;;22.01;84.71;98435.69;5053957;28;20021;-87
2023/08/07 08:23:31;;;;;;;3.78;3.30;;;;;;;21.75;87.36;98458.03;5054178;28;20472;-86
2023/08/07 08:25:57;;;;;;;5.38;3.85;;;;;;;21.92;89.08;98490.59;5036776;28;20117;-87
2023/08/07 08:28:22;;;;;;;3.35;3.05;;;;;;;21.84;88.98;98487.97;5054210;28;20029;-85
2023/08/07 08:30:48;;;;;;;4.18;3.30;;;;;;;21.71;88.92;98480.56;5054371;28;20028;-87
2023/08/07 08:33:14;;;;;;;5.55;3.72;;;;;;;21.63;88.68;98484.06;5037398;28;20029;-88
2023/08/07 08:35:40;;;;;;;3.60;3.30;;;;;;;21.60;89.46;98473.78;5055338;28;20035;-87
2023/08/07 08:38:06;;;;;;;4.15;3.22;;;;;;;21.65;90.15;98492.66;5072412;28;20111;-92
2023/08/07 08:40:33;;;;;;;5.28;3.70;;;;;;;21.53;90.27;98491.38;5036562;28;20112;-90
2023/08/07 08:43:00;;;;;;;6.13;3.88;;;;;;;21.38;90.85;98451.50;5049892;28;20032;-86
2023/08/07 08:45:27;;;;;;;5.90;4.10;;;;;;;21.79;91.93;98488.50;5053255;28;20028;-89
2023/08/07 08:48:01;;;;;;;4.65;3.70;;;;;;;21.55;90.71;98457.59;5053112;28;20049;-90
2023/08/07 08:50:28;;;;;;;4.72;4.28;;;;;;;21.46;91.15;98473.69;5054932;28;20051;-93
2023/08/07 08:52:55;;;;;;;5.65;3.70;;;;;;;21.22;90.53;98493.06;5051263;28;20033;-87
2023/08/07 08:55:21;;;;;;;4.68;4.20;;;;;;;20.91;92.14;98478.69;5051862;28;20369;-88
2023/08/07 08:57:47;;;;;;;3.80;3.50;;;;;;;20.94;92.18;98482.81;5054226;28;20423;-86
2023/08/07 09:00:17;;;;;;;4.20;3.75;;;;;;;20.89;92.32;98499.19;5051216;28;20025;-86
2023/08/07 09:02:47;;;;;;;4.17;3.77;;;;;;;20.81;91.86;98490.41;5051042;28;20127;-87
2023/08/07 09:05:19;;;;;;;4.15;3.25;;;;;;;20.90;90.44;98494.75;5056488;28;20028;-86
2023/08/07 09:07:46;;;;;;;3.78;3.47;;;;;;;21.02;90.55;98489.91;5064914;28;20393;-85
2023/08/07 09:10:13;;;;;;;5.78;3.78;;;;;;;21.01;90.75;98488.28;5058254;28;20499;-84
2023/08/07 09:13:06;;;;;;;5.45;3.63;;;;;;;20.83;87.54;98477.84;5057986;28;20064;-85
2023/08/07 09:15:32;;;;;;;6.45;3.63;;;;;;;20.76;86.36;98512.06;5061458;28;20037;-85
2023/08/07 09:17:59;;;;;;;4.38;3.42;;;;;;;20.59;85.24;98505.13;5056902;28;20088;-85
2023/08/07 09:20:28;;;;;;;3.92;3.05;;;;;;;20.80;86.49;98512.59;5054778;28;20036;-85
2023/08/07 09:22:53;;;;;;;6.18;3.13;;;;;;;20.91;85.56;98506.97;5067690;28;20088;-85
2023/08/07 09:25:30;;;;;;;5.05;2.97;;;;;;;20.91;84.52;98470.75;5038936;28;20052;-85
2023/08/07 09:27:59;;;;;;;3.45;2.80;;;;;;;20.85;84.47;98466.09;5056277;28;20498;-85
2023/08/07 09:30:29;;;;;;;3.67;2.30;;;;;;;21.00;82.29;98494.56;5055992;28;20056;-85
2023/08/07 09:32:56;;;;;;;2.85;2.45;;;;;;;21.01;82.48;98512.91;5037975;28;20089;-85
2023/08/07 09:35:22;;;;;;;4.68;2.70;;;;;;;21.01;83.08;98520.03;5055731;28;20029;-85
2023/08/07 09:37:48;;;;;;;2.83;2.40;;;;;;;20.92;84.03;98500.69;5038213;28;20533;-85
2023/08/07 09:40:15;;;;;;;3.05;2.72;;;;;;;21.06;83.22;98513.25;5055922;28;20056;-85
2023/08/07 09:42:41;;;;;;;3.33;2.70;;;;;;;21.22;82.78;98525.66;5055783;28;20048;-85
2023/08/07 09:45:23;;;;;;;3.10;2.75;;;;;;;21.44;81.46;98534.75;5037312;28;20021;-85
2023/08/07 09:48:02;;;;;;;3.08;2.78;;;;;;;21.23;81.38;98479.63;5055377;28;20472;-84
2023/08/07 09:50:28;;;;;;;3.17;2.70;;;;;;;21.33;79.98;98508.63;5054622;28;20125;-84
2023/08/07 09:53:01;;;;;;;4.03;2.72;;;;;;;21.14;79.41;98517.72;5054816;28;20404;-83
2023/08/07 09:55:27;;;;;;;4.65;2.58;;;;;;;21.02;79.52;98542.88;5036681;28;20086;-85
2023/08/07 09:57:52;;;;;;;4.72;2.95;;;;;;;20.64;80.85;98522.16;5055117;28;20025;-86
2023/08/07 10:00:22;;;;;;;2.95;2.67;;;;;;;20.42;82.53;98505.06;5039072;28;20036;-89
2023/08/07 10:02:49;;;;;;;5.07;3.00;;;;;;;20.56;84.26;98538.03;5040000;28;20025;-89
2023/08/07 10:05:15;;;;;;;3.33;2.92;;;;;;;20.42;83.78;98536.78;5057051;28;20025;-88
2023/08/07 10:07:41;;;;;;;4.03;2.60;;;;;;;20.47;83.14;98538.94;5040072;28;20028;-89
2023/08/07 10:10:08;;;;;;;2.75;2.50;;;;;;;20.56;82.24;98548.63;5038655;28;20171;-87
2023/08/07 10:12:34;;;;;;;3.30;2.90;;;;;;;20.39;82.09;98521.25;5011055;28;20041;-88
2023/08/07 10:15:00;;;;;;;3.67;2.83;;;;;;;20.65;80.56;98546.81;4975616;28;20034;-87
2023/08/07 10:17:25;;;;;;;5.13;3.33;;;;;;;20.75;80.73;98562.53;4992974;28;20050;-87
2023/08/07 10:19:51;;;;;;;3.00;2.70;;;;;;;20.76;79.76;98551.78;4976804;28;20031;-88
2023/08/07 10:22:19;;;;;;;3.97;2.80;;;;;;;20.68;81.09;98541.16;4992356;28;20518;-87
2023/08/07 10:24:47;;;;;;;2.95;2.40;;;;;;;20.59;81.32;98527.09;4975573;28;20034;-87
2023/08/07 10:27:16;;;;;;;5.70;2.90;;;;;;;20.87;82.14;98545.34;4991476;28;20057;-87
2023/08/07 10:29:43;;;;;;;4.32;2.97;;;;;;;20.92;82.67;98522.69;4991728;28;20097;-87
2023/08/07 10:32:10;;;;;;;4.05;2.85;;;;;;;21.31;80.52;98539.72;4991945;28;20048;-88
2023/08/07 10:34:37;;;;;;;4.65;2.78;;;;;;;21.25;80.33;98512.09;4991950;28;20042;-88
2023/08/07 10:37:02;;;;;;;3.33;2.92;;;;;;;21.49;79.62;98535.09;4991432;28;20038;-88
2023/08/07 10:39:28;;;;;;;5.45;2.75;;;;;;;21.27;79.67;98518.03;4975336;28;20031;-87
2023/08/07 10:41:54;;;;;;;2.90;2.60;;;;;;;21.33;80.23;98525.34;4991688;28;20140;-88
2023/08/07 10:44:22;;;;;;;3.15;2.85;;;;;;;21.21;79.22;98518.72;5024335;28;20096;-88
2023/08/07 10:46:52;;;;;;;4.43;2.72;;;;;;;21.38;77.37;98538.91;5035071;28;20045;-88
2023/08/07 10:49:36;;;;;;;2.55;2.35;;;;;;;21.28;79.81;98525.00;5035831;28;20488;-88
2023/08/07 10:52:14;;;;;;;3.72;2.40;;;;;;;21.08;79.29;98483.97;5053340;28;20033;-87
2023/08/07 10:54:48;;;;;;;2.80;2.60;;;;;;;21.40;79.20;98547.50;5035392;28;20040;-88
2023/08/07 10:57:14;;;;;;;3.10;2.55;;;;;;;21.62;79.96;98543.34;5053047;28;20035;-88
2023/08/07 10:59:50;;;;;;;2.45;2.17;;;;;;;21.65;77.94;98527.09;5036090;28;20502;-87
2023/08/07 11:02:25;;;;;;;2.30;2.10;;;;;;;21.61;75.95;98523.13;5036425;28;20047;-88
2023/08/07 11:04:51;;;;;;;2.40;2.20;;;;;;;21.69;76.06;98524.94;5035932;28;20029;-87
2023/08/07 11:07:25;;;;;;;2.83;2.38;;;;;;;21.71;75.94;98528.25;5035479;28;20041;-87
2023/08/07 11:09:51;;;;;;;2.60;2.40;;;;;;;21.71;76.67;98528.25;5035213;28;20503;-87
2023/08/07 11:12:16;;;;;;;2.97;2.50;;;;;;;21.76;77.77;98536.53;5035592;28;20119;-87
2023/08/07 11:14:41;;;;;;;2.97;2.67;;;;;;;21.53;77.76;98504.63;5027592;28;20096;-84
2023/08/07 11:17:07;;;;;;;2.95;2.20;;;;;;;21.68;78.38;98542.66;5033154;28;20113;-84
2023/08/07 11:19:33;;;;;;;5.28;2.60;;;;;;;21.43;77.41;98502.16;5032889;28;20112;-84
2023/08/07 11:21:59;;;;;;;4.25;2.53;;;;;;;21.61;76.96;98536.38;5033257;28;20022;-84
2023/08/07 11:24:27;;;;;;;3.47;2.28;;;;;;;21.72;76.31;98548.47;5032861;28;20029;-84